createdAt,value
2022-12-20T00:01:36.041Z,0.10
2022-12-20T00:04:05.807Z,-0.20
2022-12-20T00:06:36.244Z,-0.40
2022-12-20T00:09:07.507Z,-0.10
2022-12-20T00:11:36.329Z,-0.10
2022-12-20T00:14:03.418Z,-0.10
2022-12-20T00:16:30.963Z,-0.10
2022-12-20T00:19:01.656Z,-0.20
2022-12-20T00:21:31.368Z,0.10
2022-12-20T00:23:58.877Z,-0.20
2022-12-20T00:26:30.713Z,-0.40
2022-12-20T00:28:58.990Z,0.00
2022-12-20T00:31:29.021Z,0.00
2022-12-20T00:33:57.898Z,-0.30
2022-12-20T00:36:28.639Z,-0.10
2022-12-20T00:38:58.451Z,-0.10
2022-12-20T00:41:29.894Z,0.10
2022-12-20T00:43:57.340Z,0.10
2022-12-20T00:46:26.043Z,0.00
2022-12-20T00:48:54.758Z,0.20
2022-12-20T00:51:27.607Z,0.00
2022-12-20T00:53:55.173Z,0.10
2022-12-20T00:56:22.786Z,-0.30
2022-12-20T00:58:50.256Z,0.00
2022-12-20T01:01:21.863Z,0.00
2022-12-20T01:03:51.033Z,-0.10
2022-12-20T01:06:20.902Z,-0.10
2022-12-20T01:08:48.447Z,0.00
2022-12-20T01:11:29.295Z,0.00
2022-12-20T01:14:01.259Z,0.10
2022-12-20T01:16:36.043Z,-0.10
2022-12-20T01:19:04.743Z,0.00
2022-12-20T01:21:32.289Z,0.00
2022-12-20T01:23:59.629Z,-0.20
2022-12-20T01:26:29.331Z,0.30
2022-12-20T01:29:00.668Z,0.10
2022-12-20T01:31:30.276Z,0.40
2022-12-20T01:33:57.916Z,0.20
2022-12-20T01:36:29.591Z,0.40
2022-12-20T01:38:59.427Z,0.40
2022-12-20T01:41:29.546Z,0.40
2022-12-20T01:44:02.423Z,0.50
2022-12-20T01:46:33.608Z,0.50
2022-12-20T01:49:14.669Z,0.50
2022-12-20T01:51:46.893Z,0.30
2022-12-20T01:54:28.460Z,0.30
2022-12-20T01:57:05.614Z,0.50
2022-12-20T01:59:37.476Z,0.50
2022-12-20T02:02:11.099Z,0.40
2022-12-20T02:04:38.945Z,0.80
2022-12-20T02:07:13.886Z,0.40
2022-12-20T02:09:41.207Z,0.50
2022-12-20T02:12:14.997Z,0.90
2022-12-20T02:15:09.893Z,0.30
2022-12-20T02:18:13.583Z,0.80
2022-12-20T02:21:07.390Z,0.80
2022-12-20T02:24:06.617Z,0.70
2022-12-20T02:27:10.210Z,0.80
2022-12-20T02:30:11.748Z,0.70
2022-12-20T02:33:02.198Z,0.80
2022-12-20T02:35:34.015Z,0.70
2022-12-20T02:38:05.497Z,0.80
2022-12-20T02:40:43.787Z,0.80
2022-12-20T02:43:32.105Z,0.70
2022-12-20T02:46:02.730Z,0.80
2022-12-20T02:48:33.655Z,0.80
2022-12-20T02:51:02.540Z,0.50
2022-12-20T02:53:30.078Z,0.80
2022-12-20T02:56:31.289Z,1.10
2022-12-20T02:59:29.550Z,0.80
2022-12-20T03:01:57.760Z,0.80
2022-12-20T03:04:30.392Z,1.10
2022-12-20T03:07:02.880Z,1.00
2022-12-20T03:09:38.014Z,0.90
2022-12-20T03:12:07.042Z,1.10
2022-12-20T03:14:34.218Z,0.60
2022-12-20T03:17:02.521Z,1.00
2022-12-20T03:19:30.019Z,0.70
2022-12-20T03:21:57.702Z,0.70
2022-12-20T03:24:25.758Z,1.00
2022-12-20T03:26:52.803Z,0.50
2022-12-20T03:29:19.858Z,0.50
2022-12-20T03:31:46.865Z,0.70
2022-12-20T03:34:13.916Z,1.00
2022-12-20T03:36:40.897Z,0.80
2022-12-20T03:39:07.920Z,0.80
2022-12-20T03:41:35.045Z,0.70
2022-12-20T03:44:02.177Z,0.80
2022-12-20T03:46:29.345Z,0.80
2022-12-20T03:48:56.381Z,0.90
2022-12-20T03:51:23.493Z,0.90
2022-12-20T03:53:50.638Z,0.90
2022-12-20T03:56:17.757Z,0.80
2022-12-20T03:58:44.838Z,0.90
2022-12-20T04:01:25.025Z,0.80
2022-12-20T04:03:52.598Z,1.10
2022-12-20T04:06:21.403Z,0.80
2022-12-20T04:08:49.204Z,0.80
2022-12-20T04:11:16.323Z,0.70
2022-12-20T04:13:49.484Z,0.80
2022-12-20T04:16:24.909Z,0.80
2022-12-20T04:18:52.786Z,0.80
2022-12-20T04:21:32.993Z,1.10
2022-12-20T04:24:03.128Z,0.80
2022-12-20T04:26:30.707Z,0.90
2022-12-20T04:28:57.967Z,0.60
2022-12-20T04:31:25.004Z,1.10
2022-12-20T04:33:52.645Z,1.10
2022-12-20T04:36:20.109Z,1.10
2022-12-20T04:38:47.136Z,1.10
2022-12-20T04:41:22.905Z,1.10
2022-12-20T04:43:57.390Z,1.10
2022-12-20T04:46:26.427Z,0.80
2022-12-20T04:48:59.319Z,0.50
2022-12-20T04:51:28.507Z,1.10
2022-12-20T04:53:56.265Z,0.60
2022-12-20T04:56:29.913Z,0.70
2022-12-20T04:58:59.315Z,0.80
2022-12-20T05:01:26.833Z,0.60
2022-12-20T05:03:55.141Z,0.50
2022-12-20T05:06:22.545Z,0.60
2022-12-20T05:08:49.650Z,0.70
2022-12-20T05:11:17.149Z,0.70
2022-12-20T05:13:44.460Z,0.60
2022-12-20T05:16:11.794Z,0.70
2022-12-20T05:18:44.545Z,0.70
2022-12-20T05:21:34.282Z,0.60
2022-12-20T05:24:19.681Z,0.50
2022-12-20T05:26:46.690Z,0.50
2022-12-20T05:29:14.592Z,0.50
2022-12-20T05:31:41.890Z,0.50
2022-12-20T05:34:08.999Z,0.70
2022-12-20T05:36:36.163Z,0.70
2022-12-20T05:39:04.613Z,0.10
2022-12-20T05:41:32.224Z,0.60
2022-12-20T05:43:59.742Z,0.60
2022-12-20T05:46:27.003Z,0.60
2022-12-20T05:48:54.178Z,0.60
2022-12-20T05:51:21.408Z,0.20
2022-12-20T05:53:48.542Z,0.30
2022-12-20T05:56:15.582Z,0.50
2022-12-20T05:58:42.664Z,0.60
2022-12-20T06:01:10.667Z,0.60
2022-12-20T06:03:41.417Z,0.50
2022-12-20T06:06:14.001Z,0.60
2022-12-20T06:08:42.598Z,0.20
2022-12-20T06:11:10.078Z,0.60
2022-12-20T06:13:37.167Z,0.60
2022-12-20T06:16:04.781Z,0.30
2022-12-20T06:18:31.899Z,0.30
2022-12-20T06:20:59.075Z,0.50
2022-12-20T06:23:28.457Z,0.50
2022-12-20T06:25:55.653Z,0.60
2022-12-20T06:28:22.743Z,0.60
2022-12-20T06:30:58.260Z,0.50
2022-12-20T06:33:25.922Z,0.70
2022-12-20T06:35:53.599Z,0.70
2022-12-20T06:38:20.747Z,0.40
2022-12-20T06:40:47.915Z,0.50
2022-12-20T06:43:15.225Z,0.50
2022-12-20T06:45:43.146Z,0.80
2022-12-20T06:48:11.672Z,0.60
2022-12-20T06:50:39.709Z,0.60
2022-12-20T06:53:06.898Z,0.50
2022-12-20T06:55:34.204Z,0.50
2022-12-20T06:58:01.335Z,0.70
2022-12-20T07:00:28.425Z,0.60
2022-12-20T07:02:55.642Z,0.70
2022-12-20T07:05:22.902Z,0.60
2022-12-20T07:07:50.865Z,0.50
2022-12-20T07:10:18.072Z,0.90
2022-12-20T07:12:48.192Z,0.60
2022-12-20T07:15:17.045Z,0.70
2022-12-20T07:17:47.030Z,1.00
2022-12-20T07:20:16.773Z,0.70
2022-12-20T07:22:49.749Z,0.90
2022-12-20T07:25:16.998Z,1.00
2022-12-20T07:27:48.010Z,0.70
2022-12-20T07:30:16.178Z,0.90
2022-12-20T07:32:43.460Z,0.70
2022-12-20T07:35:15.185Z,0.60
2022-12-20T07:37:42.411Z,0.80
2022-12-20T07:40:11.844Z,0.80
2022-12-20T07:42:46.217Z,0.80
2022-12-20T07:45:15.737Z,0.80
2022-12-20T07:47:43.948Z,0.80
2022-12-20T07:50:12.003Z,0.90
2022-12-20T07:52:43.767Z,0.90
2022-12-20T07:55:13.117Z,0.90
2022-12-20T07:57:52.886Z,0.90
2022-12-20T08:00:20.737Z,0.90
2022-12-20T08:02:55.696Z,1.00
2022-12-20T08:05:24.488Z,1.20
2022-12-20T08:07:58.979Z,1.10
2022-12-20T08:10:28.548Z,1.60
2022-12-20T08:12:56.554Z,1.50
2022-12-20T08:15:25.291Z,1.60
2022-12-20T08:17:52.603Z,1.90
2022-12-20T08:20:19.840Z,1.60
2022-12-20T08:22:46.966Z,2.00
2022-12-20T08:25:14.082Z,2.20
2022-12-20T08:27:41.435Z,2.20
2022-12-20T08:30:10.869Z,2.10
2022-12-20T08:32:38.405Z,2.10
2022-12-20T08:35:06.896Z,2.00
2022-12-20T08:37:34.418Z,2.00
2022-12-20T08:40:01.591Z,2.10
2022-12-20T08:42:29.528Z,2.20
2022-12-20T08:44:56.681Z,2.30
2022-12-20T08:47:23.766Z,2.20
2022-12-20T08:49:50.834Z,2.30
2022-12-20T08:52:17.921Z,2.30
2022-12-20T08:54:44.997Z,2.30
2022-12-20T08:57:12.039Z,2.40
2022-12-20T08:59:39.205Z,2.40
2022-12-20T09:02:06.984Z,2.30
2022-12-20T09:04:34.123Z,2.60
2022-12-20T09:07:01.281Z,2.30
2022-12-20T09:09:28.622Z,2.20
2022-12-20T09:11:55.829Z,2.40
2022-12-20T09:14:23.947Z,2.60
2022-12-20T09:16:51.013Z,2.20
2022-12-20T09:19:18.147Z,2.70
2022-12-20T09:21:45.300Z,2.20
2022-12-20T09:24:14.049Z,2.60
2022-12-20T09:26:41.186Z,2.60
2022-12-20T09:29:08.351Z,2.60
2022-12-20T09:31:35.646Z,2.50
2022-12-20T09:34:02.819Z,2.50
2022-12-20T09:36:31.138Z,2.70
2022-12-20T09:38:58.699Z,2.50
2022-12-20T09:41:38.449Z,2.40
2022-12-20T09:44:44.208Z,2.50
2022-12-20T09:47:24.766Z,2.40
2022-12-20T09:49:57.794Z,2.60
2022-12-20T09:52:49.108Z,2.60
2022-12-20T09:55:37.402Z,2.80
2022-12-20T09:58:56.420Z,3.20
2022-12-20T10:01:32.735Z,3.10
2022-12-20T10:04:22.065Z,3.40
2022-12-20T10:07:13.240Z,3.60
2022-12-20T10:09:59.827Z,3.30
2022-12-20T10:12:49.052Z,3.30
2022-12-20T10:15:27.575Z,3.30
2022-12-20T10:18:06.634Z,3.50
2022-12-20T10:20:45.781Z,3.30
2022-12-20T10:23:46.268Z,3.40
2022-12-20T10:26:14.045Z,3.40
2022-12-20T10:28:41.623Z,3.40
2022-12-20T10:31:16.262Z,3.40
2022-12-20T10:33:45.319Z,3.40
2022-12-20T10:36:38.629Z,3.80
2022-12-20T10:39:09.983Z,3.50
2022-12-20T10:41:43.289Z,3.40
2022-12-20T10:44:27.297Z,3.60
2022-12-20T10:47:01.178Z,3.40
2022-12-20T10:49:39.586Z,3.90
2022-12-20T10:52:09.613Z,3.70
2022-12-20T10:54:40.430Z,4.00
2022-12-20T10:57:21.285Z,3.50
2022-12-20T11:00:00.263Z,4.00
2022-12-20T11:02:40.756Z,3.90
2022-12-20T11:05:11.199Z,3.90
2022-12-20T11:11:22.047Z,3.90
2022-12-20T11:13:50.951Z,4.10
2022-12-20T11:16:38.100Z,4.20
2022-12-20T11:19:28.067Z,4.10
2022-12-20T11:22:29.621Z,4.20
2022-12-20T11:25:35.831Z,4.00
2022-12-20T11:28:22.315Z,4.10
2022-12-20T11:31:10.972Z,4.00
2022-12-20T11:34:03.615Z,3.80
2022-12-20T11:37:15.840Z,4.00
2022-12-20T11:40:07.147Z,3.80
2022-12-20T11:43:07.562Z,3.80
2022-12-20T11:46:21.811Z,3.80
2022-12-20T11:49:22.564Z,4.10
2022-12-20T11:51:58.876Z,4.20
2022-12-20T11:55:23.998Z,4.30
2022-12-20T11:58:32.786Z,4.40
2022-12-20T12:01:28.475Z,4.30
2022-12-20T12:04:20.752Z,4.30
2022-12-20T12:06:57.163Z,4.30
2022-12-20T12:09:48.044Z,4.10
2022-12-20T12:12:29.343Z,4.10
2022-12-20T12:15:22.652Z,4.00
2022-12-20T12:18:28.817Z,3.80
2022-12-20T12:21:17.954Z,3.90
2022-12-20T12:23:47.306Z,4.10
2022-12-20T12:26:36.948Z,4.00
2022-12-20T12:29:12.900Z,3.80
2022-12-20T12:32:21.917Z,3.70
2022-12-20T12:35:43.817Z,4.00
2022-12-20T12:38:41.278Z,4.00
2022-12-20T12:42:18.431Z,4.00
2022-12-20T12:45:05.487Z,4.30
2022-12-20T12:48:07.608Z,4.00
2022-12-20T12:50:42.957Z,4.00
2022-12-20T12:53:17.815Z,4.00
2022-12-20T12:56:07.345Z,4.10
2022-12-20T12:58:48.528Z,3.60
2022-12-20T13:02:06.692Z,3.90
2022-12-20T13:04:55.239Z,3.70
2022-12-20T13:07:35.346Z,3.90
2022-12-20T13:10:08.614Z,3.40
2022-12-20T13:12:38.728Z,3.80
2022-12-20T13:15:21.325Z,3.50
2022-12-20T13:17:59.769Z,3.70
2022-12-20T13:20:34.131Z,3.40
2022-12-20T13:23:13.026Z,3.70
2022-12-20T13:25:49.356Z,3.60
2022-12-20T13:28:19.039Z,3.40
2022-12-20T13:30:48.665Z,3.40
2022-12-20T13:33:49.403Z,3.30
2022-12-20T13:36:16.564Z,3.20
2022-12-20T13:38:44.846Z,3.30
2022-12-20T13:41:36.489Z,3.10
2022-12-20T13:44:16.147Z,2.90
2022-12-20T13:46:52.609Z,3.00
2022-12-20T13:49:42.441Z,2.90
2022-12-20T13:52:15.271Z,2.90
2022-12-20T13:54:49.505Z,2.70
2022-12-20T13:57:26.156Z,2.80
2022-12-20T14:00:06.564Z,2.70
2022-12-20T14:02:42.061Z,2.80
2022-12-20T14:05:26.575Z,2.80
2022-12-20T14:08:05.709Z,2.70
2022-12-20T14:10:35.484Z,2.90
2022-12-20T14:13:06.485Z,2.70
2022-12-20T14:15:38.566Z,2.70
2022-12-20T14:18:20.257Z,2.70
2022-12-20T14:20:59.629Z,2.50
2022-12-20T14:23:40.016Z,2.70
2022-12-20T14:26:13.863Z,2.70
2022-12-20T14:28:47.139Z,2.70
2022-12-20T14:31:46.901Z,2.70
2022-12-20T14:34:34.034Z,2.50
2022-12-20T14:37:32.529Z,2.60
2022-12-20T14:40:20.003Z,2.60
2022-12-20T14:42:47.860Z,2.80
2022-12-20T14:45:14.818Z,2.50
2022-12-20T14:48:07.506Z,2.60
2022-12-20T14:50:42.729Z,2.40
2022-12-20T14:53:29.213Z,2.90
2022-12-20T14:55:57.230Z,2.40
2022-12-20T14:58:35.558Z,2.70
2022-12-20T15:01:21.369Z,2.40
2022-12-20T15:03:58.568Z,2.20
2022-12-20T15:06:37.545Z,2.30
2022-12-20T15:09:06.081Z,2.20
2022-12-20T15:11:40.022Z,2.30
2022-12-20T15:14:36.930Z,2.20
2022-12-20T15:17:12.712Z,2.40
2022-12-20T15:19:43.808Z,2.10
2022-12-20T15:22:21.719Z,2.10
2022-12-20T15:25:00.780Z,2.10
2022-12-20T15:27:27.897Z,2.30
2022-12-20T15:29:57.894Z,1.90
2022-12-20T15:32:29.946Z,2.00
2022-12-20T15:34:57.375Z,1.80
2022-12-20T15:37:25.854Z,2.40
2022-12-20T15:39:52.993Z,2.10
2022-12-20T15:42:21.308Z,2.10
2022-12-20T15:44:48.600Z,2.00
2022-12-20T15:47:17.353Z,2.20
2022-12-20T15:49:49.691Z,2.10
2022-12-20T15:52:24.183Z,2.00
2022-12-20T15:54:51.767Z,2.00
2022-12-20T15:57:19.312Z,1.90
2022-12-20T15:59:59.634Z,1.70
2022-12-20T16:02:31.348Z,1.60
2022-12-20T16:04:59.372Z,2.00
2022-12-20T16:07:27.557Z,1.90
2022-12-20T16:09:54.719Z,2.10
2022-12-20T16:12:35.760Z,1.90
2022-12-20T16:15:03.584Z,1.90
2022-12-20T16:17:30.699Z,1.70
2022-12-20T16:19:57.755Z,1.90
2022-12-20T16:22:26.330Z,2.00
2022-12-20T16:24:56.848Z,2.00
2022-12-20T16:27:23.977Z,2.00
2022-12-20T16:29:52.811Z,2.00
2022-12-20T16:32:24.481Z,1.70
2022-12-20T16:34:55.102Z,1.50
2022-12-20T16:37:24.316Z,1.60
2022-12-20T16:39:53.859Z,1.70
2022-12-20T16:42:23.683Z,1.50
2022-12-20T16:44:54.566Z,1.40
2022-12-20T16:47:24.712Z,1.50
2022-12-20T16:49:53.593Z,1.60
2022-12-20T16:52:24.265Z,1.60
2022-12-20T16:54:51.932Z,1.60
2022-12-20T16:57:21.546Z,1.60
2022-12-20T16:59:49.248Z,1.50
2022-12-20T17:02:34.715Z,1.60
2022-12-20T17:05:02.373Z,1.70
2022-12-20T17:07:29.488Z,1.60
2022-12-20T17:10:11.319Z,1.70
2022-12-20T17:12:38.614Z,1.70
2022-12-20T17:15:06.658Z,1.60
2022-12-20T17:17:33.791Z,1.60
2022-12-20T17:20:01.127Z,1.70
2022-12-20T17:22:30.713Z,1.70
2022-12-20T17:24:57.879Z,1.80
2022-12-20T17:27:25.081Z,1.70
2022-12-20T17:29:52.323Z,1.80
2022-12-20T17:32:25.900Z,1.70
2022-12-20T17:34:53.602Z,1.80
2022-12-20T17:37:21.649Z,1.70
2022-12-20T17:39:49.240Z,1.70
2022-12-20T17:42:17.232Z,1.60
2022-12-20T17:44:46.364Z,1.90
2022-12-20T17:47:13.680Z,1.60
2022-12-20T17:49:40.834Z,1.80
2022-12-20T17:52:15.975Z,1.70
2022-12-20T17:54:43.273Z,1.70
2022-12-20T17:57:15.595Z,1.60
2022-12-20T17:59:43.624Z,1.70
2022-12-20T18:02:24.265Z,1.70
2022-12-20T18:04:52.246Z,1.70
2022-12-20T18:07:19.569Z,2.10
2022-12-20T18:09:48.149Z,2.10
2022-12-20T18:12:15.652Z,1.50
2022-12-20T18:14:42.699Z,1.70
2022-12-20T18:17:09.920Z,1.70
2022-12-20T18:19:37.409Z,1.70
2022-12-20T18:22:05.057Z,1.70
2022-12-20T18:24:32.405Z,1.70
2022-12-20T18:26:59.570Z,1.60
2022-12-20T18:29:26.740Z,1.40
2022-12-20T18:31:53.814Z,1.60
2022-12-20T18:34:20.950Z,1.70
2022-12-20T18:36:48.527Z,1.60
2022-12-20T18:39:15.662Z,1.70
2022-12-20T18:41:46.031Z,1.70
2022-12-20T18:44:19.096Z,1.70
2022-12-20T18:46:46.436Z,1.80
2022-12-20T18:49:14.721Z,1.60
2022-12-20T18:51:42.417Z,1.60
2022-12-20T18:54:17.359Z,1.80
2022-12-20T18:56:44.564Z,1.40
2022-12-20T18:59:13.073Z,1.60
2022-12-20T19:01:43.015Z,1.60
2022-12-20T19:04:11.724Z,1.70
2022-12-20T19:06:40.030Z,1.60
2022-12-20T19:09:13.114Z,1.60
2022-12-20T19:11:41.940Z,1.60
2022-12-20T19:14:11.153Z,1.60
2022-12-20T19:16:39.925Z,1.60
2022-12-20T19:19:10.691Z,1.60
2022-12-20T19:21:43.359Z,1.60
2022-12-20T19:24:11.889Z,1.60
2022-12-20T19:26:39.842Z,1.60
2022-12-20T19:29:08.221Z,1.40
2022-12-20T19:31:37.981Z,1.80
2022-12-20T19:34:11.270Z,1.60
2022-12-20T19:36:43.141Z,1.60
2022-12-20T19:39:20.942Z,1.40
2022-12-20T19:42:15.625Z,1.60
2022-12-20T19:44:36.208Z,1.50
2022-12-20T19:47:06.479Z,1.60
2022-12-20T19:49:35.807Z,1.50
2022-12-20T19:52:04.118Z,1.50
2022-12-20T19:54:32.004Z,1.50
2022-12-20T19:57:00.138Z,1.50
2022-12-20T19:59:30.492Z,1.50
2022-12-20T20:01:58.144Z,1.50
2022-12-20T20:04:26.238Z,1.70
2022-12-20T20:06:53.543Z,1.50
2022-12-20T20:09:20.658Z,1.50
2022-12-20T20:11:48.424Z,1.60
2022-12-20T20:14:16.487Z,1.60
2022-12-20T20:16:44.098Z,1.50
2022-12-20T20:19:11.331Z,1.50
2022-12-20T20:21:38.525Z,1.50
2022-12-20T20:24:06.411Z,1.50
2022-12-20T20:26:33.578Z,1.60
2022-12-20T20:29:02.189Z,1.60
2022-12-20T20:31:30.002Z,1.60
2022-12-20T20:34:00.823Z,1.60
2022-12-20T20:36:29.931Z,1.60
2022-12-20T20:38:57.282Z,1.50
2022-12-20T20:41:24.900Z,1.50
2022-12-20T20:43:52.072Z,1.60
2022-12-20T20:46:19.335Z,1.40
2022-12-20T20:48:46.689Z,1.40
2022-12-20T20:51:15.096Z,1.40
2022-12-20T20:53:42.484Z,1.30
2022-12-20T20:56:10.889Z,1.40
2022-12-20T20:58:38.760Z,1.40
2022-12-20T21:01:12.878Z,1.20
2022-12-20T21:03:41.078Z,1.30
2022-12-20T21:08:56.608Z,1.40
2022-12-20T21:11:24.950Z,1.40
2022-12-20T21:13:54.007Z,1.40
2022-12-20T21:16:22.594Z,1.40
2022-12-20T21:18:56.423Z,1.40
2022-12-20T21:21:25.222Z,1.40
2022-12-20T21:23:54.690Z,1.30
2022-12-20T21:26:25.349Z,1.40
2022-12-20T21:29:00.183Z,1.20
2022-12-20T21:31:28.366Z,1.10
2022-12-20T21:33:56.866Z,1.40
2022-12-20T21:36:24.570Z,1.40
2022-12-20T21:38:57.602Z,1.30
2022-12-20T21:41:28.327Z,1.30
2022-12-20T21:43:58.996Z,1.30
2022-12-20T21:46:28.990Z,1.40
2022-12-20T21:48:56.447Z,1.20
2022-12-20T21:51:26.824Z,1.40
2022-12-20T21:53:59.491Z,1.20
2022-12-20T21:56:29.880Z,1.20
2022-12-20T21:58:57.866Z,1.20
2022-12-20T22:01:28.572Z,1.10
2022-12-20T22:04:04.246Z,1.10
2022-12-20T22:06:32.569Z,1.20
2022-12-20T22:09:01.654Z,1.30
2022-12-20T22:11:28.882Z,1.20
2022-12-20T22:13:56.864Z,1.30
2022-12-20T22:16:27.997Z,1.20
2022-12-20T22:18:59.756Z,1.30
2022-12-20T22:21:32.975Z,1.20
2022-12-20T22:24:01.624Z,1.20
2022-12-20T22:26:33.426Z,1.40
2022-12-20T22:29:07.230Z,1.30
2022-12-20T22:31:36.220Z,1.30
2022-12-20T22:34:04.048Z,1.30
2022-12-20T22:36:31.583Z,1.40
2022-12-20T22:38:59.193Z,1.40
2022-12-20T22:41:29.975Z,1.50
2022-12-20T22:43:59.774Z,1.50
2022-12-20T22:49:18.110Z,1.50
2022-12-20T22:51:52.529Z,1.70
2022-12-20T22:54:29.643Z,1.60
2022-12-20T22:56:56.756Z,1.70
2022-12-20T22:59:23.729Z,1.60
2022-12-20T23:01:52.202Z,1.90
2022-12-20T23:04:19.513Z,1.70
2022-12-20T23:06:46.811Z,1.90
2022-12-20T23:09:13.865Z,1.60
2022-12-20T23:11:59.253Z,1.60
2022-12-20T23:14:44.739Z,1.70
2022-12-20T23:17:12.279Z,1.60
2022-12-20T23:19:57.674Z,1.60
2022-12-20T23:22:40.561Z,1.60
2022-12-20T23:25:11.828Z,1.80
2022-12-20T23:27:42.441Z,1.60
2022-12-20T23:30:13.255Z,1.50
2022-12-20T23:32:44.744Z,1.60
2022-12-20T23:35:16.123Z,1.60
2022-12-20T23:37:43.500Z,1.60
2022-12-20T23:40:12.450Z,1.70
2022-12-20T23:42:40.173Z,1.60
2022-12-20T23:45:08.425Z,1.50
2022-12-20T23:47:35.557Z,1.50
2022-12-20T23:50:06.024Z,1.50
2022-12-20T23:52:37.099Z,1.60
2022-12-20T23:55:04.652Z,1.50
2022-12-20T23:57:32.464Z,1.60
